createdAt,value
2019-01-21T00:01:28.634Z,48.70
2019-01-21T00:03:58.474Z,49.00
2019-01-21T00:06:28.252Z,48.50
2019-01-21T00:08:57.961Z,48.20
2019-01-21T00:11:27.723Z,47.90
2019-01-21T00:13:57.445Z,47.80
2019-01-21T00:16:27.194Z,47.70
2019-01-21T00:18:56.965Z,47.70
2019-01-21T00:21:26.658Z,47.60
2019-01-21T00:23:56.402Z,47.30
2019-01-21T00:26:26.102Z,47.40
2019-01-21T00:28:55.782Z,47.40
2019-01-21T00:31:25.476Z,47.30
2019-01-21T00:33:55.163Z,47.30
2019-01-21T00:36:24.849Z,47.30
2019-01-21T00:38:54.531Z,47.50
2019-01-21T00:41:24.297Z,47.50
2019-01-21T00:43:53.991Z,47.30
2019-01-21T00:46:25.367Z,47.20
2019-01-21T00:48:55.062Z,47.30
2019-01-21T00:51:25.202Z,47.10
2019-01-21T00:53:54.889Z,47.10
2019-01-21T00:59:47.956Z,47.00
2019-01-21T01:02:17.723Z,47.00
2019-01-21T01:04:47.488Z,47.00
2019-01-21T01:07:17.263Z,47.60
2019-01-21T01:09:47.085Z,47.60
2019-01-21T01:12:16.787Z,47.80
2019-01-21T01:14:46.539Z,47.90
2019-01-21T01:17:16.394Z,47.70
2019-01-21T01:19:46.154Z,47.60
2019-01-21T01:22:15.939Z,47.50
2019-01-21T01:24:45.638Z,47.50
2019-01-21T01:27:15.327Z,47.50
2019-01-21T01:29:45.042Z,47.50
2019-01-21T01:32:14.730Z,47.40
2019-01-21T01:34:44.418Z,47.30
2019-01-21T01:37:14.117Z,47.20
2019-01-21T01:39:43.828Z,47.30
2019-01-21T01:42:13.688Z,47.20
2019-01-21T01:44:43.530Z,47.30
2019-01-21T01:47:13.312Z,47.10
2019-01-21T01:49:43.074Z,47.10
2019-01-21T01:52:12.842Z,47.10
2019-01-21T01:54:42.778Z,47.20
2019-01-21T01:57:12.551Z,47.20
2019-01-21T01:59:42.325Z,47.00
2019-01-21T02:02:12.112Z,47.30
2019-01-21T02:04:41.893Z,47.40
2019-01-21T02:07:11.679Z,47.30
2019-01-21T02:09:41.404Z,47.30
2019-01-21T02:12:11.168Z,47.50
2019-01-21T02:14:40.911Z,47.40
2019-01-21T02:17:10.628Z,47.40
2019-01-21T02:19:42.675Z,47.50
2019-01-21T02:22:13.670Z,47.40
2019-01-21T02:24:45.110Z,47.50
2019-01-21T02:27:30.806Z,47.30
2019-01-21T02:30:32.745Z,47.10
2019-01-21T02:33:58.951Z,47.10
2019-01-21T02:37:30.986Z,47.10
2019-01-21T02:40:11.524Z,47.20
2019-01-21T02:43:01.033Z,47.20
2019-01-21T02:46:07.122Z,47.30
2019-01-21T02:48:55.370Z,47.40
2019-01-21T02:51:58.377Z,47.40
2019-01-21T02:54:48.979Z,47.40
2019-01-21T02:57:51.868Z,47.40
2019-01-21T03:01:21.103Z,47.30
2019-01-21T03:04:21.252Z,47.30
2019-01-21T03:07:04.707Z,48.10
2019-01-21T03:10:02.693Z,49.70
2019-01-21T03:13:22.887Z,49.50
2019-01-21T03:16:26.252Z,48.50
2019-01-21T03:19:32.811Z,47.40
2019-01-21T03:22:56.812Z,46.40
2019-01-21T03:26:06.176Z,44.80
2019-01-21T03:29:27.955Z,44.00
2019-01-21T03:32:36.584Z,43.70
2019-01-21T03:35:51.875Z,43.70
2019-01-21T03:38:40.530Z,42.40
2019-01-21T03:41:54.547Z,41.20
2019-01-21T03:45:20.536Z,43.40
2019-01-21T03:48:05.654Z,44.60
2019-01-21T03:51:05.346Z,45.70
2019-01-21T03:54:00.100Z,46.40
2019-01-21T03:56:49.811Z,46.80
2019-01-21T03:59:56.843Z,47.70
2019-01-21T04:02:35.916Z,48.30
2019-01-21T04:05:56.256Z,48.70
2019-01-21T04:09:04.034Z,48.80
2019-01-21T04:12:00.000Z,49.00
2019-01-21T04:15:11.467Z,49.20
2019-01-21T04:18:24.342Z,49.50
2019-01-21T04:21:24.711Z,49.70
2019-01-21T04:24:31.354Z,49.80
2019-01-21T04:27:24.291Z,49.80
2019-01-21T04:30:33.050Z,50.00
2019-01-21T04:33:26.444Z,50.20
2019-01-21T04:36:30.526Z,50.30
2019-01-21T04:39:27.899Z,50.30
2019-01-21T04:42:20.355Z,50.80
2019-01-21T04:44:58.440Z,50.90
2019-01-21T04:48:19.153Z,50.80
2019-01-21T04:51:25.632Z,51.00
2019-01-21T04:54:41.356Z,50.90
2019-01-21T04:58:00.686Z,50.80
2019-01-21T05:00:57.009Z,50.80
2019-01-21T05:03:51.863Z,50.80
2019-01-21T05:07:11.642Z,51.20
2019-01-21T05:10:13.560Z,51.20
2019-01-21T05:13:23.128Z,51.20
2019-01-21T05:16:15.251Z,51.00
2019-01-21T05:19:28.071Z,50.90
2019-01-21T05:22:38.147Z,50.50
2019-01-21T05:25:43.469Z,50.20
2019-01-21T05:29:12.312Z,50.20
2019-01-21T05:32:09.900Z,50.00
2019-01-21T05:35:22.680Z,50.30
2019-01-21T05:38:33.496Z,49.90
2019-01-21T05:41:59.301Z,49.80
2019-01-21T05:44:46.459Z,49.50
2019-01-21T05:47:44.104Z,49.30
2019-01-21T05:50:45.171Z,49.90
2019-01-21T05:53:39.484Z,49.70
2019-01-21T05:56:38.826Z,49.50
2019-01-21T05:59:29.399Z,49.10
2019-01-21T06:02:16.517Z,49.10
2019-01-21T06:05:08.998Z,49.30
2019-01-21T06:08:05.283Z,49.10
2019-01-21T06:10:41.137Z,48.80
2019-01-21T06:13:51.627Z,48.60
2019-01-21T06:17:02.110Z,48.50
2019-01-21T06:19:53.431Z,48.40
2019-01-21T06:23:00.056Z,48.40
2019-01-21T06:26:09.579Z,48.10
2019-01-21T06:28:56.850Z,48.20
2019-01-21T06:31:57.675Z,48.00
2019-01-21T06:35:08.320Z,48.30
2019-01-21T06:38:08.174Z,48.10
2019-01-21T06:40:59.070Z,48.50
2019-01-21T06:44:14.950Z,49.30
2019-01-21T06:47:32.232Z,48.80
2019-01-21T06:50:48.063Z,48.90
2019-01-21T06:53:40.592Z,49.10
2019-01-21T06:56:47.625Z,49.20
2019-01-21T07:00:28.655Z,48.90
2019-01-21T07:03:36.710Z,49.30
2019-01-21T07:09:37.291Z,50.20
2019-01-21T07:12:46.925Z,50.40
2019-01-21T07:15:33.264Z,50.30
2019-01-21T07:18:42.585Z,51.10
2019-01-21T07:21:56.787Z,49.00
2019-01-21T07:24:51.081Z,46.90
2019-01-21T07:28:06.744Z,46.30
2019-01-21T07:31:26.415Z,46.10
2019-01-21T07:34:26.002Z,46.20
2019-01-21T07:37:33.791Z,45.90
2019-01-21T07:40:55.966Z,45.90
2019-01-21T07:43:55.794Z,45.80
2019-01-21T07:46:41.726Z,46.80
2019-01-21T07:49:56.224Z,47.20
2019-01-21T07:53:03.835Z,46.90
2019-01-21T07:56:15.400Z,47.20
2019-01-21T07:59:28.835Z,49.00
2019-01-21T08:02:45.887Z,46.80
2019-01-21T08:05:51.330Z,47.40
2019-01-21T08:09:08.223Z,47.20
2019-01-21T08:11:58.571Z,47.30
2019-01-21T08:15:02.296Z,47.20
2019-01-21T08:18:21.901Z,49.00
2019-01-21T08:21:29.926Z,47.10
2019-01-21T08:24:32.459Z,47.30
2019-01-21T08:27:17.831Z,49.00
2019-01-21T08:30:22.275Z,46.60
2019-01-21T08:33:19.585Z,46.10
2019-01-21T08:36:41.359Z,45.70
2019-01-21T08:39:38.842Z,46.10
2019-01-21T08:42:29.349Z,45.90
2019-01-21T08:45:18.245Z,45.60
2019-01-21T08:48:00.835Z,45.40
2019-01-21T08:50:47.294Z,45.80
2019-01-21T08:53:57.074Z,45.40
2019-01-21T08:56:52.970Z,45.20
2019-01-21T08:59:56.589Z,45.00
2019-01-21T09:03:07.739Z,45.80
2019-01-21T09:06:04.331Z,44.30
2019-01-21T09:08:54.574Z,44.90
2019-01-21T09:12:29.663Z,45.40
2019-01-21T09:15:25.308Z,45.60
2019-01-21T09:18:32.093Z,44.50
2019-01-21T09:21:22.130Z,46.40
2019-01-21T09:24:23.903Z,44.40
2019-01-21T09:27:10.038Z,44.90
2019-01-21T09:30:17.933Z,44.60
2019-01-21T09:33:10.893Z,44.20
2019-01-21T09:35:48.411Z,44.90
2019-01-21T09:38:42.953Z,44.20
2019-01-21T09:41:34.624Z,44.50
2019-01-21T09:44:43.892Z,44.40
2019-01-21T09:47:12.269Z,43.80
2019-01-21T09:49:43.797Z,43.10
2019-01-21T09:52:18.316Z,42.70
2019-01-21T09:54:49.669Z,42.30
2019-01-21T09:57:26.466Z,41.40
2019-01-21T10:00:03.166Z,41.80
2019-01-21T10:02:48.191Z,42.30
2019-01-21T10:05:18.834Z,42.20
2019-01-21T10:08:25.395Z,42.90
2019-01-21T10:11:37.192Z,42.70
2019-01-21T10:14:45.343Z,42.60
2019-01-21T10:17:54.743Z,42.10
2019-01-21T10:20:54.284Z,42.30
2019-01-21T10:23:57.683Z,42.00
2019-01-21T10:27:25.229Z,42.40
2019-01-21T10:30:21.002Z,42.70
2019-01-21T10:33:21.233Z,42.70
2019-01-21T10:36:31.823Z,43.30
2019-01-21T10:39:25.371Z,43.90
2019-01-21T10:42:39.449Z,43.30
2019-01-21T10:45:23.635Z,43.50
2019-01-21T10:48:21.974Z,43.30
2019-01-21T10:51:16.980Z,42.90
2019-01-21T10:54:16.052Z,43.30
2019-01-21T10:57:20.990Z,43.40
2019-01-21T11:00:30.704Z,43.30
2019-01-21T11:03:14.783Z,43.40
2019-01-21T11:06:20.262Z,43.70
2019-01-21T11:09:26.625Z,44.10
2019-01-21T11:12:18.858Z,43.40
2019-01-21T11:15:11.408Z,43.60
2019-01-21T11:17:55.602Z,44.50
2019-01-21T11:20:52.296Z,44.10
2019-01-21T11:24:01.559Z,43.80
2019-01-21T11:27:23.212Z,45.20
2019-01-21T11:30:19.682Z,44.60
2019-01-21T11:33:12.367Z,45.00
2019-01-21T11:36:29.456Z,45.20
2019-01-21T11:39:25.126Z,43.40
2019-01-21T11:42:16.679Z,44.20
2019-01-21T11:45:11.801Z,44.40
2019-01-21T11:48:31.131Z,44.90
2019-01-21T11:51:44.584Z,45.70
2019-01-21T11:55:00.277Z,45.20
2019-01-21T11:58:09.525Z,46.10
2019-01-21T12:00:53.903Z,45.60
2019-01-21T12:03:36.144Z,45.20
2019-01-21T12:06:13.204Z,44.10
2019-01-21T12:08:58.920Z,44.20
2019-01-21T12:11:48.698Z,44.60
2019-01-21T12:14:45.411Z,44.70
2019-01-21T12:17:52.262Z,44.80
2019-01-21T12:21:03.521Z,44.60
2019-01-21T12:23:57.238Z,44.70
2019-01-21T12:26:50.357Z,45.30
2019-01-21T12:30:12.990Z,44.60
2019-01-21T12:33:26.538Z,45.80
2019-01-21T12:36:47.142Z,46.00
2019-01-21T12:39:44.526Z,44.70
2019-01-21T12:42:45.024Z,46.30
2019-01-21T12:46:14.057Z,45.50
2019-01-21T12:49:39.949Z,46.90
2019-01-21T12:52:50.697Z,47.00
2019-01-21T12:55:57.120Z,45.90
2019-01-21T12:58:37.262Z,46.50
2019-01-21T13:01:16.242Z,47.50
2019-01-21T13:04:15.090Z,47.20
2019-01-21T13:07:23.776Z,46.00
2019-01-21T13:10:31.570Z,47.50
2019-01-21T13:13:30.073Z,47.50
2019-01-21T13:16:12.043Z,48.10
2019-01-21T13:18:54.176Z,46.30
2019-01-21T13:21:36.366Z,47.10
2019-01-21T13:24:18.586Z,46.80
2019-01-21T13:27:00.817Z,46.80
2019-01-21T13:29:42.583Z,47.20
2019-01-21T13:35:15.322Z,47.30
2019-01-21T13:37:57.373Z,46.80
2019-01-21T13:40:39.360Z,46.20
2019-01-21T13:43:39.697Z,47.20
2019-01-21T13:46:21.778Z,47.00
2019-01-21T13:49:22.023Z,47.50
2019-01-21T13:55:04.015Z,47.60
2019-01-21T13:57:50.199Z,47.70
2019-01-21T14:00:33.452Z,47.30
2019-01-21T14:03:34.246Z,48.00
2019-01-21T14:06:47.138Z,47.70
2019-01-21T14:09:58.119Z,47.50
2019-01-21T14:12:45.998Z,48.10
2019-01-21T14:15:42.276Z,48.10
2019-01-21T14:18:35.418Z,47.70
2019-01-21T14:21:20.211Z,47.70
2019-01-21T14:24:18.180Z,48.50
2019-01-21T14:27:02.409Z,47.80
2019-01-21T14:29:51.723Z,48.50
2019-01-21T14:33:00.065Z,48.70
2019-01-21T14:35:56.854Z,48.80
2019-01-21T14:39:10.485Z,48.50
2019-01-21T14:42:35.189Z,47.30
2019-01-21T14:45:31.702Z,47.70
2019-01-21T14:48:27.744Z,49.00
2019-01-21T14:51:44.641Z,48.20
2019-01-21T14:54:48.083Z,48.80
2019-01-21T14:57:45.915Z,49.10
2019-01-21T15:00:42.304Z,48.60
2019-01-21T15:04:06.207Z,48.90
2019-01-21T15:07:14.751Z,47.20
2019-01-21T15:10:19.258Z,47.30
2019-01-21T15:13:30.645Z,47.50
2019-01-21T15:16:22.639Z,48.00
2019-01-21T15:19:19.279Z,48.00
2019-01-21T15:22:56.152Z,47.80
2019-01-21T15:25:55.923Z,48.20
2019-01-21T15:28:51.950Z,48.70
2019-01-21T15:31:43.278Z,48.20
2019-01-21T15:34:35.264Z,48.60
2019-01-21T15:37:58.721Z,48.50
2019-01-21T15:41:10.097Z,48.90
2019-01-21T15:43:51.223Z,48.90
2019-01-21T15:46:56.697Z,49.20
2019-01-21T15:49:44.011Z,49.20
2019-01-21T15:52:51.439Z,49.40
2019-01-21T15:55:43.907Z,50.00
2019-01-21T15:58:41.695Z,50.10
2019-01-21T16:01:50.637Z,49.40
2019-01-21T16:04:36.132Z,50.00
2019-01-21T16:08:06.358Z,50.00
2019-01-21T16:11:18.979Z,49.40
2019-01-21T16:13:52.723Z,49.60
2019-01-21T16:16:50.187Z,50.30
2019-01-21T16:19:29.259Z,49.70
2019-01-21T16:22:41.289Z,50.00
2019-01-21T16:25:59.189Z,50.10
2019-01-21T16:29:14.104Z,49.90
2019-01-21T16:32:05.173Z,50.00
2019-01-21T16:34:49.451Z,50.00
2019-01-21T16:37:44.908Z,50.50
2019-01-21T16:40:39.760Z,50.30
2019-01-21T16:43:09.556Z,49.80
2019-01-21T16:45:39.417Z,50.40
2019-01-21T16:48:09.190Z,49.50
2019-01-21T16:50:38.963Z,50.10
2019-01-21T16:53:08.847Z,49.40
2019-01-21T16:55:38.688Z,49.20
2019-01-21T16:58:08.497Z,49.30
2019-01-21T17:00:38.215Z,49.50
2019-01-21T17:03:07.917Z,49.30
2019-01-21T17:05:37.683Z,49.50
2019-01-21T17:08:07.536Z,49.80
2019-01-21T17:10:39.245Z,49.80
2019-01-21T17:13:08.728Z,49.40
2019-01-21T17:15:39.397Z,49.60
2019-01-21T17:18:09.086Z,49.70
2019-01-21T17:20:38.847Z,49.40
2019-01-21T17:23:08.550Z,49.50
2019-01-21T17:25:38.387Z,50.30
2019-01-21T17:28:09.014Z,49.40
2019-01-21T17:30:39.075Z,49.90
2019-01-21T17:33:12.191Z,49.50
2019-01-21T17:35:41.885Z,49.60
2019-01-21T17:38:11.589Z,50.00
2019-01-21T17:40:41.926Z,50.20
2019-01-21T17:43:11.689Z,50.70
2019-01-21T17:45:41.473Z,49.80
2019-01-21T17:48:11.174Z,50.00
2019-01-21T17:50:40.873Z,49.60
2019-01-21T17:53:10.572Z,49.80
2019-01-21T17:55:40.412Z,49.00
2019-01-21T17:58:10.323Z,49.50
2019-01-21T18:00:40.155Z,49.30
2019-01-21T18:03:09.858Z,49.60
2019-01-21T18:05:39.634Z,49.50
2019-01-21T18:08:09.407Z,49.60
2019-01-21T18:10:39.182Z,49.90
2019-01-21T18:13:08.897Z,49.70
2019-01-21T18:15:38.596Z,49.80
2019-01-21T18:18:08.483Z,49.70
2019-01-21T18:20:38.298Z,49.40
2019-01-21T18:23:08.028Z,49.50
2019-01-21T18:25:37.746Z,49.00
2019-01-21T18:28:07.649Z,49.40
2019-01-21T18:30:37.558Z,49.60
2019-01-21T18:33:07.576Z,49.30
2019-01-21T18:35:37.275Z,49.10
2019-01-21T18:38:07.263Z,49.50
2019-01-21T18:40:37.061Z,49.50
2019-01-21T18:43:06.919Z,49.60
2019-01-21T18:45:36.716Z,49.40
2019-01-21T18:48:06.539Z,49.50
2019-01-21T18:50:36.337Z,49.50
2019-01-21T18:53:06.131Z,49.60
2019-01-21T18:55:35.903Z,49.00
2019-01-21T18:58:05.772Z,49.10
2019-01-21T19:00:35.498Z,49.30
2019-01-21T19:03:05.614Z,49.50
2019-01-21T19:05:35.542Z,49.10
2019-01-21T19:08:05.450Z,49.40
2019-01-21T19:10:35.164Z,49.00
2019-01-21T19:13:05.100Z,49.10
2019-01-21T19:15:34.819Z,48.20
2019-01-21T19:18:05.096Z,48.40
2019-01-21T19:20:34.819Z,48.10
2019-01-21T19:23:04.669Z,48.50
2019-01-21T19:25:34.457Z,47.70
2019-01-21T19:28:04.280Z,47.20
2019-01-21T19:30:35.060Z,47.10
2019-01-21T19:33:05.129Z,47.80
2019-01-21T19:35:38.773Z,47.80
2019-01-21T19:38:08.540Z,47.80
2019-01-21T19:40:38.405Z,47.90
2019-01-21T19:43:08.121Z,47.80
2019-01-21T19:45:37.932Z,47.70
2019-01-21T19:48:07.631Z,47.60
2019-01-21T19:50:37.408Z,47.40
2019-01-21T19:53:07.280Z,47.00
2019-01-21T19:55:39.440Z,47.40
2019-01-21T19:58:10.121Z,48.00
2019-01-21T20:00:40.085Z,47.80
2019-01-21T20:03:09.798Z,47.30
2019-01-21T20:05:39.509Z,47.00
2019-01-21T20:08:09.293Z,47.60
2019-01-21T20:10:40.051Z,46.80
2019-01-21T20:13:09.841Z,47.50
2019-01-21T20:15:39.720Z,47.10
2019-01-21T20:18:09.560Z,47.50
2019-01-21T20:20:40.988Z,47.00
2019-01-21T20:23:11.006Z,47.20
2019-01-21T20:25:40.789Z,47.10
2019-01-21T20:28:10.598Z,47.30
2019-01-21T20:30:40.422Z,47.10
2019-01-21T20:33:10.324Z,47.00
2019-01-21T20:35:40.098Z,47.00
2019-01-21T20:38:09.784Z,47.20
2019-01-21T20:40:39.540Z,48.00
2019-01-21T20:43:09.312Z,47.10
2019-01-21T20:45:39.012Z,47.20
2019-01-21T20:48:08.723Z,47.50
2019-01-21T20:50:38.481Z,47.30
2019-01-21T20:53:08.306Z,47.20
2019-01-21T20:55:38.008Z,47.40
2019-01-21T20:58:07.773Z,47.60
2019-01-21T21:00:37.480Z,47.50
2019-01-21T21:03:07.259Z,46.60
2019-01-21T21:05:37.111Z,47.20
2019-01-21T21:08:07.350Z,47.60
2019-01-21T21:10:37.310Z,47.50
2019-01-21T21:13:07.150Z,47.10
2019-01-21T21:15:36.958Z,47.00
2019-01-21T21:18:06.723Z,47.40
2019-01-21T21:20:36.436Z,47.30
2019-01-21T21:23:06.124Z,47.00
2019-01-21T21:25:35.817Z,47.20
2019-01-21T21:28:05.519Z,47.00
2019-01-21T21:30:35.283Z,47.10
2019-01-21T21:33:05.659Z,47.10
2019-01-21T21:35:35.523Z,47.30
2019-01-21T21:38:05.378Z,47.70
2019-01-21T21:40:35.069Z,46.90
2019-01-21T21:43:05.114Z,46.70
2019-01-21T21:45:35.188Z,47.30
2019-01-21T21:48:05.616Z,47.10
2019-01-21T21:50:35.453Z,47.10
2019-01-21T21:53:05.390Z,46.90
2019-01-21T21:55:35.154Z,46.70
2019-01-21T21:58:05.357Z,47.00
2019-01-21T22:00:35.187Z,47.50
2019-01-21T22:03:05.172Z,46.50
2019-01-21T22:05:35.013Z,47.00
2019-01-21T22:08:05.092Z,47.70
2019-01-21T22:10:35.210Z,47.60
2019-01-21T22:13:05.156Z,47.70
2019-01-21T22:15:34.845Z,47.80
2019-01-21T22:18:04.782Z,47.60
2019-01-21T22:20:34.482Z,46.80
2019-01-21T22:23:04.703Z,47.10
2019-01-21T22:25:34.384Z,47.60
2019-01-21T22:28:04.219Z,47.30
2019-01-21T22:30:33.907Z,47.00
2019-01-21T22:33:03.686Z,47.30
2019-01-21T22:35:33.730Z,47.10
2019-01-21T22:38:03.421Z,47.70
2019-01-21T22:40:33.114Z,48.20
2019-01-21T22:43:02.820Z,48.50
2019-01-21T22:45:32.522Z,48.30
2019-01-21T22:48:02.273Z,48.40
2019-01-21T22:50:31.969Z,48.70
2019-01-21T22:53:01.655Z,48.20
2019-01-21T22:55:31.373Z,48.20
2019-01-21T22:58:01.065Z,48.30
2019-01-21T23:00:50.186Z,48.40
2019-01-21T23:03:19.887Z,48.20
2019-01-21T23:05:49.720Z,48.20
2019-01-21T23:08:19.483Z,48.40
2019-01-21T23:10:49.335Z,48.10
2019-01-21T23:13:19.091Z,47.80
2019-01-21T23:15:49.767Z,48.00
2019-01-21T23:18:19.458Z,48.50
2019-01-21T23:20:49.535Z,48.00
2019-01-21T23:23:19.378Z,48.60
2019-01-21T23:25:49.087Z,47.80
2019-01-21T23:28:18.851Z,48.50
2019-01-21T23:30:48.620Z,48.30
2019-01-21T23:33:18.295Z,47.20
2019-01-21T23:35:48.367Z,47.20
2019-01-21T23:38:18.189Z,47.80
2019-01-21T23:40:47.908Z,48.30
2019-01-21T23:43:17.605Z,47.50
2019-01-21T23:45:47.307Z,47.70
2019-01-21T23:48:17.116Z,47.90
2019-01-21T23:50:46.817Z,48.10
2019-01-21T23:53:16.518Z,47.20
2019-01-21T23:55:46.364Z,47.10
2019-01-21T23:58:16.051Z,47.70
